createdAt,value
2023-01-31T00:00:16.442Z,3.28
2023-01-31T00:05:15.429Z,2.55
2023-01-31T00:10:14.958Z,2.28
2023-01-31T00:15:16.436Z,2.78
2023-01-31T00:20:19.321Z,2.30
2023-01-31T00:25:24.562Z,2.55
2023-01-31T00:30:28.542Z,3.10
2023-01-31T00:35:33.544Z,2.30
2023-01-31T00:40:33.110Z,2.08
2023-01-31T00:45:30.656Z,1.67
2023-01-31T00:50:31.353Z,2.25
2023-01-31T00:55:32.805Z,2.20
2023-01-31T01:00:30.758Z,1.88
2023-01-31T01:05:27.237Z,1.50
2023-01-31T01:10:24.961Z,2.15
2023-01-31T01:15:26.025Z,1.85
2023-01-31T01:20:23.604Z,1.52
2023-01-31T01:25:20.488Z,2.05
2023-01-31T01:35:18.447Z,1.55
2023-01-31T01:40:16.408Z,1.10
2023-01-31T01:45:23.191Z,1.50
2023-01-31T01:50:30.205Z,1.80
2023-01-31T01:55:31.767Z,2.00
2023-01-31T02:00:30.000Z,1.80
2023-01-31T02:05:31.476Z,2.38
2023-01-31T02:10:36.522Z,2.55
2023-01-31T02:15:33.685Z,2.53
2023-01-31T02:20:52.988Z,2.55
2023-01-31T02:26:23.479Z,2.47
2023-01-31T02:31:57.274Z,2.63
2023-01-31T02:43:57.343Z,2.55
2023-01-31T02:49:42.612Z,2.05
2023-01-31T02:55:26.747Z,2.40
2023-01-31T03:00:24.088Z,2.05
2023-01-31T03:05:21.659Z,2.00
2023-01-31T03:10:30.626Z,1.98
2023-01-31T03:15:56.121Z,2.53
2023-01-31T03:21:01.430Z,2.35
2023-01-31T03:25:59.202Z,2.20
2023-01-31T03:31:18.942Z,3.35
2023-01-31T03:36:27.040Z,1.52
2023-01-31T03:41:39.671Z,2.08
2023-01-31T03:47:14.595Z,1.90
2023-01-31T03:52:12.396Z,2.47
2023-01-31T03:57:22.126Z,2.20
2023-01-31T04:02:19.740Z,2.53
2023-01-31T04:07:17.966Z,2.40
2023-01-31T04:12:15.143Z,2.58
2023-01-31T04:17:12.017Z,3.38
2023-01-31T04:22:13.704Z,2.53
2023-01-31T04:27:10.311Z,2.22
2023-01-31T04:32:07.075Z,2.47
2023-01-31T04:37:03.726Z,2.65
2023-01-31T04:42:00.717Z,1.83
2023-01-31T04:51:53.661Z,2.80
2023-01-31T05:26:38.505Z,2.08
2023-01-31T05:32:45.867Z,2.17
2023-01-31T05:44:56.004Z,3.20
2023-01-31T05:49:53.014Z,2.08
2023-01-31T05:54:49.548Z,3.67
2023-01-31T05:59:48.680Z,3.53
2023-01-31T06:05:11.186Z,2.92
2023-01-31T06:15:55.485Z,2.72
2023-01-31T06:20:54.007Z,3.47
2023-01-31T06:25:52.093Z,2.88
2023-01-31T06:30:56.762Z,3.05
2023-01-31T06:35:53.442Z,2.80
2023-01-31T06:41:02.438Z,2.80
2023-01-31T06:46:06.639Z,3.72
2023-01-31T06:51:03.303Z,3.13
2023-01-31T06:55:59.812Z,3.53
2023-01-31T07:00:58.771Z,3.30
2023-01-31T07:05:56.413Z,2.80
2023-01-31T07:10:55.486Z,2.65
2023-01-31T07:15:57.510Z,2.67
2023-01-31T07:21:01.369Z,3.13
2023-01-31T07:25:57.848Z,3.00
2023-01-31T07:30:54.406Z,3.28
2023-01-31T07:35:52.443Z,2.88
2023-01-31T07:40:53.530Z,4.03
2023-01-31T07:45:50.636Z,3.10
2023-01-31T07:50:47.174Z,3.20
2023-01-31T07:55:47.673Z,3.67
2023-01-31T08:01:02.539Z,4.55
2023-01-31T08:06:12.357Z,4.05
2023-01-31T08:11:08.940Z,4.13
2023-01-31T08:21:40.576Z,4.28
2023-01-31T08:32:00.429Z,3.95
2023-01-31T08:37:13.538Z,4.10
2023-01-31T08:42:40.039Z,4.45
2023-01-31T08:47:37.230Z,4.78
2023-01-31T09:04:53.817Z,3.65
2023-01-31T09:10:58.151Z,4.70
2023-01-31T09:16:35.762Z,4.78
2023-01-31T09:28:35.222Z,4.47
2023-01-31T09:40:12.502Z,4.00
2023-01-31T09:46:52.198Z,4.03
2023-01-31T10:10:42.270Z,4.15
2023-01-31T10:16:56.902Z,4.25
2023-01-31T10:23:33.361Z,4.25
2023-01-31T10:40:55.624Z,5.13
2023-01-31T10:47:06.370Z,4.80
2023-01-31T10:52:43.916Z,5.38
2023-01-31T10:58:11.896Z,4.55
2023-01-31T11:09:49.769Z,4.28
2023-01-31T11:21:53.180Z,4.82
2023-01-31T11:27:45.286Z,4.28
2023-01-31T11:33:39.117Z,3.47
2023-01-31T12:41:24.455Z,1.90
2023-01-31T14:39:38.046Z,2.30
2023-01-31T14:44:55.227Z,2.40
2023-01-31T14:50:10.667Z,2.45
2023-01-31T14:55:28.657Z,3.72
2023-01-31T15:00:28.906Z,2.75
2023-01-31T15:05:31.180Z,2.90
2023-01-31T15:11:04.526Z,3.08
2023-01-31T15:16:15.859Z,2.80
2023-01-31T16:56:18.200Z,2.38
2023-01-31T21:02:43.822Z,4.47
2023-01-31T21:20:17.308Z,3.75
2023-01-31T21:57:35.611Z,4.30
2023-01-31T22:03:18.376Z,4.05
2023-01-31T22:15:12.812Z,4.18
2023-01-31T22:21:10.019Z,4.95
2023-01-31T22:32:30.881Z,4.72
2023-01-31T22:38:10.971Z,4.85
2023-01-31T23:06:09.521Z,3.85
2023-01-31T23:11:12.505Z,3.83
2023-01-31T23:34:12.084Z,3.92
2023-01-31T23:39:09.426Z,4.22
2023-01-31T23:44:15.566Z,3.38
2023-01-31T23:50:09.654Z,3.97
2023-01-31T23:55:07.112Z,3.88
